createdAt,value
2022-12-23T00:02:01.925Z,12.43
2022-12-23T00:04:51.312Z,19.40
2022-12-23T00:07:41.094Z,12.88
2022-12-23T00:10:32.078Z,12.82
2022-12-23T00:13:38.893Z,12.60
2022-12-23T00:16:28.529Z,16.98
2022-12-23T00:19:17.882Z,13.48
2022-12-23T00:22:07.520Z,13.20
2022-12-23T00:24:56.851Z,12.35
2022-12-23T00:28:01.561Z,17.20
2022-12-23T00:30:53.541Z,14.05
2022-12-23T00:33:49.730Z,12.35
2022-12-23T00:36:40.968Z,19.27
2022-12-23T00:39:52.093Z,12.93
2022-12-23T00:42:55.871Z,13.13
2022-12-23T00:45:46.640Z,12.13
2022-12-23T00:48:58.862Z,12.52
2022-12-23T00:51:48.295Z,12.77
2022-12-23T00:54:38.319Z,14.13
2022-12-23T00:57:28.092Z,13.32
2022-12-23T01:00:18.772Z,13.00
2022-12-23T01:03:32.150Z,16.77
2022-12-23T01:09:10.650Z,11.93
2022-12-23T01:12:00.327Z,15.77
2022-12-23T01:14:50.156Z,16.73
2022-12-23T01:17:39.411Z,13.82
2022-12-23T01:20:30.126Z,21.15
2022-12-23T01:23:19.407Z,17.92
2022-12-23T01:26:10.221Z,19.15
2022-12-23T01:29:00.333Z,21.15
2022-12-23T01:31:50.049Z,19.67
2022-12-23T01:34:39.363Z,23.35
2022-12-23T01:37:29.967Z,22.38
2022-12-23T01:40:19.444Z,21.98
2022-12-23T01:43:11.725Z,20.65
2022-12-23T01:46:01.032Z,23.27
2022-12-23T01:48:54.159Z,25.20
2022-12-23T01:51:44.083Z,20.50
2022-12-23T01:54:35.632Z,22.23
2022-12-23T01:57:25.963Z,23.95
2022-12-23T02:00:34.055Z,22.83
2022-12-23T02:03:40.581Z,20.52
2022-12-23T02:06:52.551Z,21.50
2022-12-23T02:09:43.213Z,22.27
2022-12-23T02:12:45.639Z,22.45
2022-12-23T02:16:03.761Z,20.57
2022-12-23T02:19:11.697Z,23.60
2022-12-23T02:22:24.735Z,22.98
2022-12-23T02:26:08.046Z,25.13
2022-12-23T02:29:27.724Z,24.50
2022-12-23T02:32:26.258Z,25.25
2022-12-23T02:35:26.262Z,23.77
2022-12-23T02:38:23.758Z,25.73
2022-12-23T02:41:22.009Z,24.23
2022-12-23T02:44:24.387Z,25.27
2022-12-23T02:47:21.116Z,23.90
2022-12-23T02:50:16.567Z,23.95
2022-12-23T02:53:15.339Z,27.25
2022-12-23T02:56:07.458Z,30.42
2022-12-23T02:59:06.681Z,22.95
2022-12-23T03:01:57.609Z,24.33
2022-12-23T03:04:48.509Z,26.55
2022-12-23T03:07:43.970Z,25.05
2022-12-23T03:10:46.133Z,24.58
2022-12-23T03:14:11.189Z,26.35
2022-12-23T03:17:15.056Z,25.23
2022-12-23T03:20:16.337Z,25.60
2022-12-23T03:23:18.929Z,30.02
2022-12-23T03:26:17.679Z,29.08
2022-12-23T03:29:14.805Z,31.10
2022-12-23T03:32:06.509Z,28.80
2022-12-23T03:34:58.280Z,29.58
2022-12-23T03:37:53.403Z,29.38
2022-12-23T03:40:46.990Z,29.00
2022-12-23T03:43:46.732Z,31.02
2022-12-23T03:46:46.175Z,29.15
2022-12-23T03:49:41.283Z,30.02
2022-12-23T03:52:37.931Z,32.40
2022-12-23T03:55:34.660Z,28.38
2022-12-23T03:58:35.195Z,28.52
2022-12-23T04:01:37.942Z,31.70
2022-12-23T04:04:31.839Z,31.40
2022-12-23T04:07:30.379Z,31.67
2022-12-23T04:10:21.304Z,35.47
2022-12-23T04:13:12.024Z,32.88
2022-12-23T04:16:02.468Z,34.25
2022-12-23T04:18:51.829Z,36.53
2022-12-23T04:21:41.173Z,37.30
2022-12-23T04:24:30.752Z,35.22
2022-12-23T04:27:20.047Z,34.22
2022-12-23T04:30:14.927Z,31.95
2022-12-23T04:33:04.351Z,33.92
2022-12-23T04:35:53.718Z,34.22
2022-12-23T04:38:43.083Z,33.38
2022-12-23T04:41:32.413Z,34.45
2022-12-23T04:44:21.703Z,32.97
2022-12-23T04:47:12.339Z,33.03
2022-12-23T04:50:01.593Z,29.73
2022-12-23T04:52:50.986Z,32.33
2022-12-23T04:55:40.381Z,31.27
2022-12-23T04:58:29.658Z,29.90
2022-12-23T05:01:19.005Z,28.52
2022-12-23T05:04:10.112Z,28.42
2022-12-23T05:06:59.575Z,30.88
2022-12-23T05:09:48.836Z,32.92
2022-12-23T05:12:38.103Z,34.50
2022-12-23T05:15:27.480Z,38.58
2022-12-23T05:18:17.143Z,39.22
2022-12-23T05:21:08.025Z,41.08
2022-12-23T05:23:57.759Z,43.38
2022-12-23T05:26:52.915Z,40.22
2022-12-23T05:29:47.056Z,40.08
2022-12-23T05:32:36.314Z,32.20
2022-12-23T05:35:27.737Z,34.40
2022-12-23T05:38:18.513Z,33.70
2022-12-23T05:41:08.417Z,36.22
2022-12-23T05:43:57.755Z,30.55
2022-12-23T05:46:47.081Z,22.25
2022-12-23T05:49:36.354Z,20.02
2022-12-23T05:52:25.746Z,25.42
2022-12-23T05:55:16.594Z,27.90
2022-12-23T05:58:06.009Z,26.88
2022-12-23T06:00:55.374Z,25.10
2022-12-23T06:03:44.814Z,23.05
2022-12-23T06:06:34.154Z,37.80
2022-12-23T06:09:23.449Z,31.60
2022-12-23T06:12:14.189Z,27.92
2022-12-23T06:15:03.710Z,31.27
2022-12-23T06:17:53.431Z,31.83
2022-12-23T06:20:42.773Z,37.13
2022-12-23T06:23:32.030Z,38.28
2022-12-23T06:26:21.423Z,35.47
2022-12-23T06:29:12.686Z,42.63
2022-12-23T06:32:02.118Z,34.75
2022-12-23T06:34:53.414Z,41.92
2022-12-23T06:37:42.741Z,38.75
2022-12-23T06:40:32.027Z,44.13
2022-12-23T06:43:21.431Z,49.75
2022-12-23T06:46:12.523Z,50.15
2022-12-23T06:49:04.919Z,48.20
2022-12-23T06:51:57.089Z,53.13
2022-12-23T06:54:46.430Z,52.47
2022-12-23T06:57:35.875Z,52.05
2022-12-23T07:00:25.442Z,53.40
2022-12-23T07:03:16.211Z,51.20
2022-12-23T07:06:06.103Z,46.22
2022-12-23T07:08:55.411Z,52.35
2022-12-23T07:11:44.687Z,51.33
2022-12-23T07:14:34.050Z,64.18
2022-12-23T07:17:23.480Z,59.30
2022-12-23T07:20:15.246Z,65.00
2022-12-23T07:23:04.593Z,64.82
2022-12-23T07:25:53.988Z,62.45
2022-12-23T07:28:46.855Z,61.25
2022-12-23T07:31:40.774Z,55.10
2022-12-23T07:34:30.671Z,56.10
2022-12-23T07:37:21.957Z,55.20
2022-12-23T07:40:13.339Z,58.40
2022-12-23T07:43:02.948Z,60.83
2022-12-23T07:45:59.241Z,54.05
2022-12-23T07:48:49.519Z,56.53
2022-12-23T07:51:38.848Z,53.88
2022-12-23T07:54:29.513Z,58.22
2022-12-23T07:57:18.814Z,61.53
2022-12-23T08:00:11.390Z,62.00
2022-12-23T08:03:03.481Z,56.42
2022-12-23T08:06:02.113Z,60.03
2022-12-23T08:08:51.476Z,57.90
2022-12-23T08:11:42.250Z,54.75
2022-12-23T08:14:31.538Z,56.35
2022-12-23T08:17:21.307Z,53.17
2022-12-23T08:20:11.862Z,51.25
2022-12-23T08:23:01.143Z,47.72
2022-12-23T08:25:50.422Z,46.78
2022-12-23T08:28:42.800Z,45.45
2022-12-23T08:31:32.935Z,38.93
2022-12-23T08:34:22.269Z,42.70
2022-12-23T08:37:11.596Z,37.03
2022-12-23T08:40:00.932Z,47.55
2022-12-23T08:42:50.187Z,45.03
2022-12-23T08:45:41.190Z,35.05
2022-12-23T08:48:30.656Z,43.88
2022-12-23T08:51:25.272Z,40.47
2022-12-23T08:54:14.601Z,39.40
2022-12-23T08:57:03.907Z,43.00
2022-12-23T08:59:53.103Z,37.97
2022-12-23T09:02:44.132Z,35.03
2022-12-23T09:05:34.740Z,34.78
2022-12-23T09:08:24.051Z,46.42
2022-12-23T09:11:16.593Z,48.53
2022-12-23T09:14:07.404Z,50.65
2022-12-23T09:16:56.743Z,49.25
2022-12-23T09:19:52.657Z,53.47
2022-12-23T09:22:42.564Z,51.55
2022-12-23T09:25:31.955Z,57.05
2022-12-23T09:28:21.578Z,64.00
2022-12-23T09:31:13.511Z,63.42
2022-12-23T09:34:02.981Z,45.97
2022-12-23T09:36:55.606Z,26.00
2022-12-23T09:39:45.223Z,9.85
2022-12-23T09:42:54.377Z,7.93
2022-12-23T09:46:00.298Z,7.60
2022-12-23T09:49:04.996Z,8.40
2022-12-23T09:52:01.646Z,7.43
2022-12-23T09:54:55.312Z,6.40
2022-12-23T09:57:54.635Z,8.45
2022-12-23T10:00:55.471Z,8.98
2022-12-23T10:04:36.644Z,7.32
2022-12-23T10:07:38.373Z,8.30
2022-12-23T10:10:36.396Z,8.23
2022-12-23T10:13:29.858Z,7.95
2022-12-23T10:19:19.874Z,5.70
2022-12-23T10:22:17.284Z,6.55
2022-12-23T10:25:16.390Z,8.57
2022-12-23T10:28:06.333Z,8.45
2022-12-23T10:34:23.099Z,7.70
2022-12-23T10:37:21.574Z,8.88
2022-12-23T10:40:22.013Z,7.95
2022-12-23T10:43:24.316Z,8.98
2022-12-23T10:46:23.593Z,9.05
2022-12-23T10:49:24.446Z,8.32
2022-12-23T10:52:18.880Z,8.93
2022-12-23T10:55:20.025Z,8.98
2022-12-23T10:58:15.814Z,8.40
2022-12-23T11:01:15.223Z,8.82
2022-12-23T11:04:17.618Z,9.32
2022-12-23T11:07:42.952Z,10.73
2022-12-23T11:10:28.765Z,12.07
2022-12-23T11:13:40.032Z,11.20
2022-12-23T11:16:30.304Z,13.40
2022-12-23T11:19:19.647Z,13.55
2022-12-23T11:22:24.878Z,12.68
2022-12-23T11:25:36.735Z,12.88
2022-12-23T11:28:26.666Z,11.30
2022-12-23T11:31:17.417Z,12.82
2022-12-23T11:34:15.986Z,13.07
2022-12-23T11:37:07.691Z,13.63
2022-12-23T11:39:57.342Z,11.27
2022-12-23T11:42:55.047Z,13.43
2022-12-23T11:45:44.800Z,12.55
2022-12-23T11:48:34.965Z,13.38
2022-12-23T11:51:28.029Z,12.02
2022-12-23T11:54:20.306Z,10.98
2022-12-23T11:57:18.367Z,11.30
2022-12-23T12:00:21.793Z,12.90
2022-12-23T12:06:09.583Z,9.60
2022-12-23T12:09:03.152Z,8.75
2022-12-23T12:11:55.907Z,10.70
2022-12-23T12:14:48.188Z,11.52
2022-12-23T12:17:45.903Z,10.00
2022-12-23T12:20:40.544Z,10.93
2022-12-23T12:23:41.608Z,10.60
2022-12-23T12:26:34.816Z,10.98
2022-12-23T12:29:31.534Z,10.95
2022-12-23T12:32:29.172Z,16.60
2022-12-23T12:35:30.470Z,11.02
2022-12-23T12:38:27.708Z,10.45
2022-12-23T12:41:22.516Z,11.32
2022-12-23T12:44:31.660Z,11.10
2022-12-23T12:47:52.751Z,10.13
2022-12-23T12:50:45.745Z,10.70
2022-12-23T12:53:38.304Z,13.77
2022-12-23T12:56:34.940Z,14.05
2022-12-23T12:59:28.565Z,18.00
2022-12-23T13:02:53.822Z,20.30
2022-12-23T13:06:20.421Z,16.40
2022-12-23T13:09:16.758Z,26.02
2022-12-23T13:12:19.150Z,24.00
2022-12-23T13:15:21.673Z,20.30
2022-12-23T13:18:29.320Z,21.70
2022-12-23T13:21:25.494Z,18.73
2022-12-23T13:24:25.720Z,21.00
2022-12-23T13:27:21.267Z,20.70
2022-12-23T13:30:14.347Z,23.60
2022-12-23T13:33:24.630Z,15.85
2022-12-23T13:36:37.974Z,13.00
2022-12-23T13:39:44.949Z,18.40
2022-12-23T13:42:43.652Z,20.70
2022-12-23T13:45:37.682Z,19.13
2022-12-23T13:48:40.560Z,15.93
2022-12-23T13:51:40.615Z,16.10
2022-12-23T13:54:47.905Z,20.42
2022-12-23T13:57:53.650Z,18.10
2022-12-23T14:00:43.758Z,16.77
2022-12-23T14:03:36.681Z,19.65
2022-12-23T14:09:39.304Z,10.38
2022-12-23T14:12:31.017Z,15.10
2022-12-23T14:15:45.660Z,16.27
2022-12-23T14:19:07.539Z,16.38
2022-12-23T14:22:14.969Z,15.15
2022-12-23T14:25:33.071Z,13.18
2022-12-23T14:28:40.982Z,15.30
2022-12-23T14:31:36.741Z,21.58
2022-12-23T14:34:32.848Z,20.20
2022-12-23T14:37:39.074Z,18.70
2022-12-23T14:41:19.177Z,23.02
2022-12-23T14:44:22.209Z,17.83
2022-12-23T14:47:36.069Z,19.02
2022-12-23T14:50:42.648Z,15.45
2022-12-23T14:53:34.336Z,15.57
2022-12-23T14:56:29.947Z,18.48
2022-12-23T14:59:28.585Z,18.77
2022-12-23T15:02:24.347Z,19.25
2022-12-23T15:05:14.757Z,15.02
2022-12-23T15:08:05.207Z,14.90
2022-12-23T15:10:57.071Z,12.73
2022-12-23T15:13:46.898Z,12.27
2022-12-23T15:16:40.378Z,17.63
2022-12-23T15:19:30.384Z,11.55
2022-12-23T15:22:25.317Z,14.25
2022-12-23T15:25:23.770Z,11.23
2022-12-23T15:28:21.820Z,12.75
2022-12-23T15:31:26.356Z,11.50
2022-12-23T15:34:24.460Z,8.73
2022-12-23T15:37:14.525Z,8.27
2022-12-23T15:40:11.872Z,7.60
2022-12-23T15:43:04.046Z,10.18
2022-12-23T15:45:55.049Z,9.88
2022-12-23T15:48:45.002Z,9.05
2022-12-23T15:54:55.764Z,8.32
2022-12-23T15:57:50.634Z,8.55
2022-12-23T16:00:43.166Z,8.90
2022-12-23T16:03:38.526Z,6.77
2022-12-23T16:06:32.124Z,9.80
2022-12-23T16:09:34.537Z,8.02
2022-12-23T16:12:26.524Z,7.27
2022-12-23T16:15:27.078Z,7.15
2022-12-23T16:18:28.661Z,7.85
2022-12-23T16:21:19.443Z,10.50
2022-12-23T16:24:10.790Z,9.35
2022-12-23T16:27:00.202Z,8.88
2022-12-23T16:29:50.433Z,10.30
2022-12-23T16:32:54.656Z,8.90
2022-12-23T16:35:45.302Z,14.02
2022-12-23T16:38:36.053Z,9.27
2022-12-23T16:41:25.516Z,13.32
2022-12-23T16:44:14.918Z,12.00
2022-12-23T16:47:09.786Z,10.50
2022-12-23T16:49:59.178Z,12.45
2022-12-23T16:52:48.594Z,14.23
2022-12-23T16:55:41.720Z,10.38
2022-12-23T16:58:35.619Z,10.98
2022-12-23T17:01:29.010Z,10.32
2022-12-23T17:04:18.780Z,12.82
2022-12-23T17:07:12.895Z,11.85
2022-12-23T17:10:02.224Z,10.00
2022-12-23T17:12:53.160Z,11.32
2022-12-23T17:15:42.583Z,12.07
2022-12-23T17:18:31.964Z,11.68
2022-12-23T17:21:24.682Z,12.27
2022-12-23T17:24:22.121Z,13.00
2022-12-23T17:27:17.084Z,11.73
2022-12-23T17:30:14.756Z,12.07
2022-12-23T17:33:04.083Z,12.77
2022-12-23T17:35:53.879Z,13.60
2022-12-23T17:38:43.447Z,15.57
2022-12-23T17:41:34.874Z,12.30
2022-12-23T17:44:24.228Z,14.32
2022-12-23T17:47:18.456Z,12.25
2022-12-23T17:50:10.183Z,13.75
2022-12-23T17:52:59.771Z,17.38
2022-12-23T17:55:49.085Z,16.48
2022-12-23T17:58:38.631Z,18.58
2022-12-23T18:01:31.080Z,16.20
2022-12-23T18:04:21.930Z,15.48
2022-12-23T18:07:13.557Z,14.00
2022-12-23T18:10:02.930Z,15.25
2022-12-23T18:12:56.741Z,13.20
2022-12-23T18:15:46.986Z,11.48
2022-12-23T18:18:45.822Z,14.40
2022-12-23T18:21:37.671Z,11.65
2022-12-23T18:24:27.349Z,12.77
2022-12-23T18:27:18.167Z,12.68
2022-12-23T18:30:09.597Z,13.65
2022-12-23T18:32:58.955Z,12.95
2022-12-23T18:35:50.185Z,13.07
2022-12-23T18:38:40.957Z,11.80
2022-12-23T18:41:30.544Z,13.50
2022-12-23T18:44:21.480Z,12.32
2022-12-23T18:47:11.655Z,12.60
2022-12-23T18:50:00.961Z,12.27
2022-12-23T18:52:50.548Z,12.27
2022-12-23T18:55:41.307Z,15.63
2022-12-23T18:58:30.723Z,15.45
2022-12-23T19:01:20.449Z,13.43
2022-12-23T19:04:09.929Z,13.85
2022-12-23T19:06:59.502Z,12.23
2022-12-23T19:09:48.884Z,17.08
2022-12-23T19:12:39.726Z,15.80
2022-12-23T19:15:29.440Z,16.77
2022-12-23T19:18:21.829Z,20.23
2022-12-23T19:21:11.204Z,18.67
2022-12-23T19:24:00.706Z,24.70
2022-12-23T19:26:50.039Z,25.25
2022-12-23T19:29:40.886Z,25.95
2022-12-23T19:32:30.228Z,28.50
2022-12-23T19:35:19.655Z,28.38
2022-12-23T19:38:09.211Z,32.55
2022-12-23T19:40:59.288Z,33.00
2022-12-23T19:43:48.987Z,37.40
2022-12-23T19:46:39.857Z,31.23
2022-12-23T19:49:29.313Z,32.05
2022-12-23T19:52:18.713Z,27.83
2022-12-23T19:55:10.286Z,29.42
2022-12-23T19:57:59.576Z,29.48
2022-12-23T20:00:49.003Z,29.95
2022-12-23T20:03:40.325Z,29.92
2022-12-23T20:06:33.784Z,29.58
2022-12-23T20:09:23.210Z,28.42
2022-12-23T20:12:12.742Z,26.55
2022-12-23T20:15:02.448Z,24.05
2022-12-23T20:17:51.962Z,25.13
2022-12-23T20:20:45.598Z,22.67
2022-12-23T20:23:35.482Z,20.73
2022-12-23T20:26:24.870Z,19.58
2022-12-23T20:29:14.391Z,17.30
2022-12-23T20:32:03.730Z,15.70
2022-12-23T20:34:53.044Z,18.33
2022-12-23T20:37:43.798Z,15.40
2022-12-23T20:40:33.273Z,13.48
2022-12-23T20:43:22.568Z,15.18
2022-12-23T20:46:15.552Z,14.63
2022-12-23T20:49:05.160Z,13.25
2022-12-23T20:51:54.499Z,15.30
2022-12-23T20:54:45.317Z,17.40
2022-12-23T20:57:35.953Z,21.08
2022-12-23T21:00:25.595Z,19.15
2022-12-23T21:03:15.277Z,18.70
2022-12-23T21:06:04.734Z,23.02
2022-12-23T21:08:55.871Z,25.45
2022-12-23T21:11:48.594Z,25.52
2022-12-23T21:14:37.957Z,24.15
2022-12-23T21:17:27.309Z,29.05
2022-12-23T21:20:17.287Z,29.00
2022-12-23T21:23:06.570Z,33.97
2022-12-23T21:26:14.947Z,32.30
2022-12-23T21:29:08.314Z,34.95
2022-12-23T21:31:58.273Z,34.33
2022-12-23T21:34:47.954Z,31.50
2022-12-23T21:37:37.361Z,30.50
2022-12-23T21:40:26.673Z,30.60
2022-12-23T21:43:16.011Z,29.92
2022-12-23T21:46:09.673Z,31.33
2022-12-23T21:49:00.244Z,34.05
2022-12-23T21:51:49.695Z,31.55
2022-12-23T21:54:39.126Z,29.65
2022-12-23T21:57:28.469Z,27.90
2022-12-23T22:00:18.384Z,27.83
2022-12-23T22:03:09.093Z,26.27
2022-12-23T22:06:10.230Z,24.75
2022-12-23T22:09:00.894Z,31.67
2022-12-23T22:11:50.443Z,33.67
2022-12-23T22:14:39.884Z,32.28
2022-12-23T22:17:29.372Z,35.30
2022-12-23T22:20:20.203Z,37.20
2022-12-23T22:23:09.533Z,36.70
2022-12-23T22:25:58.838Z,33.13
2022-12-23T22:28:48.430Z,32.13
2022-12-23T22:31:41.426Z,35.53
2022-12-23T22:34:30.745Z,32.97
2022-12-23T22:37:21.389Z,33.97
2022-12-23T22:40:12.309Z,35.45
2022-12-23T22:43:01.688Z,36.92
2022-12-23T22:45:58.174Z,37.67
2022-12-23T22:48:47.766Z,37.60
2022-12-23T22:51:38.052Z,39.67
2022-12-23T22:54:28.695Z,40.42
2022-12-23T22:57:18.049Z,37.50
2022-12-23T23:00:12.644Z,37.65
2022-12-23T23:03:02.159Z,37.10
2022-12-23T23:06:00.024Z,35.45
2022-12-23T23:08:49.539Z,34.67
2022-12-23T23:11:41.343Z,37.53
2022-12-23T23:14:50.982Z,36.83
2022-12-23T23:17:40.446Z,37.95
2022-12-23T23:20:29.867Z,38.42
2022-12-23T23:23:19.349Z,37.92
2022-12-23T23:26:10.406Z,37.80
2022-12-23T23:29:01.035Z,39.22
2022-12-23T23:31:50.432Z,37.75
2022-12-23T23:34:40.713Z,35.15
2022-12-23T23:37:30.038Z,32.67
2022-12-23T23:40:19.791Z,32.85
2022-12-23T23:43:09.426Z,29.35
2022-12-23T23:46:00.258Z,30.80
2022-12-23T23:48:49.663Z,28.13
2022-12-23T23:51:39.839Z,28.85
2022-12-23T23:54:29.222Z,24.20
2022-12-23T23:57:18.509Z,26.40
